createdAt,value
2022-12-12T00:00:03.063Z,84.1
2022-12-12T00:03:03.350Z,84.1
2022-12-12T00:06:03.080Z,84.1
2022-12-12T00:09:02.996Z,84.1
2022-12-12T00:12:02.896Z,84.1
2022-12-12T00:15:03.000Z,85.4
2022-12-12T00:18:02.966Z,85.4
2022-12-12T00:21:02.888Z,85.4
2022-12-12T00:24:02.973Z,85.4
2022-12-12T00:27:02.959Z,85.4
2022-12-12T00:30:02.998Z,85.4
2022-12-12T00:33:02.954Z,85.4
2022-12-12T00:36:02.940Z,85.4
2022-12-12T00:39:02.957Z,85.4
2022-12-12T00:42:02.974Z,84.9
2022-12-12T00:45:02.945Z,84.9
2022-12-12T00:48:03.010Z,84.9
2022-12-12T00:51:02.892Z,84.9
2022-12-12T00:54:02.957Z,84.9
2022-12-12T00:57:02.960Z,84.9
2022-12-12T01:00:03.062Z,84.9
2022-12-12T01:03:03.109Z,84.9
2022-12-12T01:06:03.003Z,84.9
2022-12-12T01:09:02.937Z,84.9
2022-12-12T01:12:03.021Z,83.6
2022-12-12T01:15:02.965Z,83.6
2022-12-12T01:18:02.971Z,83.6
2022-12-12T01:21:02.935Z,83.6
2022-12-12T01:24:02.991Z,83.6
2022-12-12T01:27:03.058Z,83.6
2022-12-12T01:30:03.012Z,83.6
2022-12-12T01:33:02.914Z,83.6
2022-12-12T01:36:02.970Z,83.6
2022-12-12T01:39:03.027Z,83.6
2022-12-12T01:42:03.053Z,83.6
2022-12-12T01:45:02.992Z,83.6
2022-12-12T01:48:07.905Z,83.6
2022-12-12T01:51:02.985Z,83.6
2022-12-12T01:54:02.984Z,83.6
2022-12-12T01:57:03.007Z,83.6
2022-12-12T02:00:03.003Z,83.6
2022-12-12T02:03:03.060Z,83.6
2022-12-12T02:06:02.969Z,83.6
2022-12-12T02:09:03.007Z,83.6
2022-12-12T02:12:03.029Z,83.6
2022-12-12T02:15:02.942Z,83.6
2022-12-12T02:18:09.899Z,83.6
2022-12-12T02:21:02.986Z,83.6
2022-12-12T02:24:02.942Z,83.6
2022-12-12T02:27:03.005Z,83.6
2022-12-12T02:30:02.972Z,83.6
2022-12-12T02:33:03.005Z,83.6
2022-12-12T02:36:02.993Z,83.6
2022-12-12T02:39:02.962Z,83.6
2022-12-12T02:42:02.987Z,83.6
2022-12-12T02:45:02.979Z,83.6
2022-12-12T02:48:02.953Z,83.6
2022-12-12T02:51:02.923Z,83.6
2022-12-12T02:54:02.979Z,83.6
2022-12-12T02:57:02.940Z,83.6
2022-12-12T03:00:02.989Z,83.6
2022-12-12T03:03:02.926Z,87.2
2022-12-12T03:06:02.986Z,87.2
2022-12-12T03:09:02.982Z,87.2
2022-12-12T03:12:03.032Z,87.2
2022-12-12T03:15:02.899Z,87.2
2022-12-12T03:18:03.013Z,87.2
2022-12-12T03:21:02.958Z,87.2
2022-12-12T03:24:03.512Z,87.2
2022-12-12T03:27:02.987Z,87.2
2022-12-12T03:30:02.939Z,87.2
2022-12-12T03:33:02.958Z,87.2
2022-12-12T03:36:02.928Z,87.2
2022-12-12T03:39:02.992Z,87.2
2022-12-12T03:42:02.981Z,87.2
2022-12-12T03:45:02.960Z,87.2
2022-12-12T03:48:03.033Z,87.2
2022-12-12T03:51:02.965Z,87.2
2022-12-12T03:54:03.002Z,87.2
2022-12-12T03:57:02.994Z,87.2
2022-12-12T04:00:03.695Z,87.2
2022-12-12T04:03:02.933Z,88.4
2022-12-12T04:06:03.014Z,88.4
2022-12-12T04:09:02.964Z,88.4
2022-12-12T04:12:02.930Z,88.4
2022-12-12T04:15:02.978Z,88.4
2022-12-12T04:18:02.955Z,88.1
2022-12-12T04:21:02.948Z,88.1
2022-12-12T04:24:03.002Z,88.1
2022-12-12T04:27:02.967Z,88.1
2022-12-12T04:30:03.008Z,88.1
2022-12-12T04:33:02.953Z,88.1
2022-12-12T04:36:02.997Z,88.1
2022-12-12T04:39:02.931Z,88.1
2022-12-12T04:42:02.938Z,88.1
2022-12-12T04:45:02.983Z,88.1
2022-12-12T04:48:02.927Z,88.1
2022-12-12T04:51:02.970Z,88.1
2022-12-12T04:54:03.019Z,88.1
2022-12-12T04:57:02.913Z,88.1
2022-12-12T05:00:03.092Z,88.1
2022-12-12T05:03:02.982Z,88.7
2022-12-12T05:06:02.995Z,88.7
2022-12-12T05:09:02.949Z,88.7
2022-12-12T05:12:03.241Z,88.7
2022-12-12T05:15:02.942Z,88.7
2022-12-12T05:18:02.951Z,88.7
2022-12-12T05:21:02.980Z,88.7
2022-12-12T05:24:02.924Z,88.7
2022-12-12T05:27:02.967Z,88.7
2022-12-12T05:30:02.968Z,88.5
2022-12-12T05:33:02.968Z,88.5
2022-12-12T05:36:02.918Z,88.5
2022-12-12T05:39:02.958Z,88.5
2022-12-12T05:42:02.939Z,88.5
2022-12-12T05:45:03.131Z,88.5
2022-12-12T05:48:02.922Z,88.5
2022-12-12T05:51:02.948Z,88.5
2022-12-12T05:54:02.941Z,88.5
2022-12-12T05:57:03.045Z,88.5
2022-12-12T06:00:02.974Z,88.4
2022-12-12T06:03:02.949Z,88.4
2022-12-12T06:06:02.964Z,88.4
2022-12-12T06:09:02.962Z,88.4
2022-12-12T06:12:02.937Z,88.3
2022-12-12T06:15:02.984Z,88.3
2022-12-12T06:18:02.951Z,88.3
2022-12-12T06:21:03.019Z,88.3
2022-12-12T06:24:02.991Z,88.3
2022-12-12T06:27:02.932Z,88.3
2022-12-12T06:30:02.992Z,88.3
2022-12-12T06:33:02.950Z,88.3
2022-12-12T06:36:03.009Z,88.3
2022-12-12T06:39:02.970Z,88.3
2022-12-12T06:42:02.917Z,88.3
2022-12-12T06:45:02.967Z,88.3
2022-12-12T06:48:02.928Z,88.3
2022-12-12T06:51:02.965Z,88.3
2022-12-12T06:54:02.983Z,88.3
2022-12-12T06:57:02.905Z,89.3
2022-12-12T07:00:03.072Z,89.3
2022-12-12T07:03:03.171Z,89.3
2022-12-12T07:06:03.051Z,89.4
2022-12-12T07:09:02.963Z,89.4
2022-12-12T07:12:02.944Z,89.4
2022-12-12T07:15:03.040Z,89.4
2022-12-12T07:18:03.042Z,89.4
2022-12-12T07:21:03.072Z,89.4
2022-12-12T07:24:03.084Z,89.4
2022-12-12T07:27:03.053Z,89.1
2022-12-12T07:30:03.063Z,89.1
2022-12-12T07:33:03.052Z,89.1
2022-12-12T07:36:03.264Z,89.1
2022-12-12T07:39:03.004Z,89.1
2022-12-12T07:42:03.047Z,89.1
2022-12-12T07:45:03.005Z,89.1
2022-12-12T07:48:03.017Z,88.8
2022-12-12T07:51:03.061Z,88.7
2022-12-12T07:54:02.999Z,88.7
2022-12-12T07:57:03.076Z,88.7
2022-12-12T08:00:03.093Z,88.7
2022-12-12T08:03:03.030Z,88.7
2022-12-12T08:06:03.034Z,88.7
2022-12-12T08:09:02.988Z,88.7
2022-12-12T08:12:03.056Z,88.7
2022-12-12T08:15:02.994Z,88.7
2022-12-12T08:18:03.062Z,88.7
2022-12-12T08:21:03.035Z,88.7
2022-12-12T08:24:03.066Z,88.7
2022-12-12T08:27:03.029Z,88.7
2022-12-12T08:30:03.131Z,88.7
2022-12-12T08:33:10.589Z,88.2
2022-12-12T08:36:03.011Z,88.2
2022-12-12T08:39:03.011Z,88.2
2022-12-12T08:42:02.990Z,88.2
2022-12-12T08:45:03.037Z,88.2
2022-12-12T08:48:02.990Z,88.2
2022-12-12T08:51:03.051Z,88.2
2022-12-12T08:54:02.964Z,88.2
2022-12-12T08:57:02.973Z,88.2
2022-12-12T09:00:03.079Z,88.2
2022-12-12T09:03:03.166Z,88.2
2022-12-12T09:06:02.998Z,88.2
2022-12-12T09:09:02.973Z,88.2
2022-12-12T09:12:03.006Z,88.2
2022-12-12T09:15:02.974Z,88.2
2022-12-12T09:18:03.052Z,88.2
2022-12-12T09:21:03.043Z,88.2
2022-12-12T09:24:02.986Z,88.2
2022-12-12T09:27:03.016Z,88.2
2022-12-12T09:30:03.086Z,88.2
2022-12-12T09:33:03.027Z,88.2
2022-12-12T09:36:03.050Z,88.2
2022-12-12T09:39:03.015Z,87.3
2022-12-12T09:42:02.990Z,87.4
2022-12-12T09:45:03.038Z,87.4
2022-12-12T09:48:02.946Z,87.4
2022-12-12T09:51:02.997Z,87.4
2022-12-12T09:54:02.986Z,87.4
2022-12-12T09:57:02.981Z,87.4
2022-12-12T10:00:03.020Z,87.4
2022-12-12T10:03:03.093Z,87.4
2022-12-12T10:06:39.976Z,87.4
2022-12-12T10:09:03.005Z,87.4
2022-12-12T10:12:10.716Z,87.4
2022-12-12T10:15:02.975Z,87.4
2022-12-12T10:18:03.037Z,87.4
2022-12-12T10:21:02.941Z,87.4
2022-12-12T10:24:02.980Z,87.4
2022-12-12T10:27:02.993Z,87.4
2022-12-12T10:30:02.993Z,87.4
2022-12-12T10:33:03.005Z,87.4
2022-12-12T10:36:03.091Z,87.4
2022-12-12T10:39:02.998Z,86.9
2022-12-12T10:42:03.056Z,86.9
2022-12-12T10:45:03.031Z,87
2022-12-12T10:48:03.038Z,87
2022-12-12T10:51:02.986Z,87
2022-12-12T10:54:02.958Z,87
2022-12-12T10:57:03.016Z,87
2022-12-12T11:00:03.104Z,87
2022-12-12T11:03:03.492Z,87
2022-12-12T11:06:02.980Z,87
2022-12-12T11:09:02.988Z,87
2022-12-12T11:12:02.968Z,86.8
2022-12-12T11:15:03.038Z,86.8
2022-12-12T11:18:08.885Z,86.8
2022-12-12T11:21:03.010Z,86.8
2022-12-12T11:24:03.211Z,86.8
2022-12-12T11:27:02.956Z,86.8
2022-12-12T11:30:03.021Z,86.8
2022-12-12T11:33:03.002Z,86.8
2022-12-12T11:36:02.956Z,86.5
2022-12-12T11:39:02.954Z,86.5
2022-12-12T11:42:03.038Z,86.5
2022-12-12T11:45:03.063Z,86.5
2022-12-12T11:48:03.057Z,86.5
2022-12-12T11:51:03.019Z,86.5
2022-12-12T11:54:03.043Z,86.5
2022-12-12T11:57:03.137Z,86.5
2022-12-12T12:00:03.096Z,86.5
2022-12-12T12:03:03.158Z,86.5
2022-12-12T12:06:03.008Z,86.5
2022-12-12T12:09:03.010Z,86.5
2022-12-12T12:12:03.456Z,86.5
2022-12-12T12:15:03.041Z,86.5
2022-12-12T12:18:03.001Z,86.5
2022-12-12T12:21:02.953Z,86.3
2022-12-12T12:24:02.980Z,86.3
2022-12-12T12:27:02.943Z,86.3
2022-12-12T12:30:03.123Z,86
2022-12-12T12:33:02.989Z,86
2022-12-12T12:36:02.993Z,86
2022-12-12T12:39:02.984Z,86
2022-12-12T12:42:03.086Z,86
2022-12-12T12:45:03.031Z,86
2022-12-12T12:48:10.987Z,86
2022-12-12T12:51:03.041Z,86
2022-12-12T12:54:03.053Z,86
2022-12-12T12:57:03.038Z,86
2022-12-12T13:00:03.096Z,86
2022-12-12T13:03:03.238Z,86
2022-12-12T13:06:03.032Z,86
2022-12-12T13:09:03.064Z,86
2022-12-12T13:12:02.968Z,86
2022-12-12T13:15:03.043Z,86
2022-12-12T13:18:02.941Z,86
2022-12-12T13:21:02.964Z,84.2
2022-12-12T13:24:02.948Z,84.2
2022-12-12T13:27:03.045Z,84.2
2022-12-12T13:30:03.187Z,84.2
2022-12-12T13:33:03.057Z,84.2
2022-12-12T13:36:03.000Z,84.2
2022-12-12T13:39:03.066Z,84.2
2022-12-12T13:42:02.932Z,84.2
2022-12-12T13:45:03.053Z,84.2
2022-12-12T13:48:02.994Z,84.2
2022-12-12T13:51:03.032Z,84.2
2022-12-12T13:54:06.065Z,84.2
2022-12-12T13:57:02.997Z,84.2
2022-12-12T14:00:03.238Z,84.2
2022-12-12T14:03:04.959Z,84.2
2022-12-12T14:06:03.009Z,84.2
2022-12-12T14:09:03.040Z,84.2
2022-12-12T14:12:03.046Z,84.2
2022-12-12T14:15:03.100Z,84
2022-12-12T14:18:03.050Z,84
2022-12-12T14:21:03.077Z,84
2022-12-12T14:24:02.934Z,84
2022-12-12T14:27:03.020Z,84
2022-12-12T14:30:03.026Z,84
2022-12-12T14:33:02.980Z,84
2022-12-12T14:36:03.038Z,84
2022-12-12T14:39:03.023Z,84
2022-12-12T14:42:03.024Z,84
2022-12-12T14:45:03.120Z,84
2022-12-12T14:48:03.023Z,84
2022-12-12T14:51:03.031Z,84
2022-12-12T14:54:03.092Z,84
2022-12-12T14:57:03.004Z,84
2022-12-12T15:00:03.097Z,84
2022-12-12T15:03:03.609Z,84
2022-12-12T15:06:02.990Z,84
2022-12-12T15:09:02.982Z,84
2022-12-12T15:12:02.995Z,83.8
2022-12-12T15:15:03.077Z,83.6
2022-12-12T15:18:02.954Z,83.6
2022-12-12T15:21:02.981Z,83.6
2022-12-12T15:24:02.981Z,83.6
2022-12-12T15:27:03.068Z,83.6
2022-12-12T15:30:02.980Z,83.6
2022-12-12T15:33:02.957Z,83.6
2022-12-12T15:36:05.490Z,83.6
2022-12-12T15:39:03.002Z,83.6
2022-12-12T15:42:02.993Z,83.6
2022-12-12T15:45:02.987Z,83.6
2022-12-12T15:48:03.006Z,83.6
2022-12-12T15:51:02.896Z,83.6
2022-12-12T15:54:02.928Z,83.6
2022-12-12T15:57:02.944Z,83.6
2022-12-12T16:00:03.035Z,81.9
2022-12-12T16:03:03.015Z,81.9
2022-12-12T16:06:03.012Z,81.9
2022-12-12T16:09:02.951Z,81.9
2022-12-12T16:12:02.939Z,81.9
2022-12-12T16:15:02.965Z,81.9
2022-12-12T16:18:03.633Z,81.9
2022-12-12T16:21:03.051Z,81.9
2022-12-12T16:24:02.951Z,81.9
2022-12-12T16:27:02.922Z,81.9
2022-12-12T16:30:03.149Z,81.9
2022-12-12T16:33:02.922Z,81.2
2022-12-12T16:36:03.052Z,81.2
2022-12-12T16:39:03.073Z,81.2
2022-12-12T16:42:02.938Z,81.2
2022-12-12T16:45:02.970Z,81.2
2022-12-12T16:48:02.886Z,81.2
2022-12-12T16:51:03.202Z,81.2
2022-12-12T16:54:03.001Z,81.2
2022-12-12T16:57:02.974Z,81.2
2022-12-12T17:00:03.002Z,81.2
2022-12-12T17:03:02.910Z,81.2
2022-12-12T17:06:02.920Z,80.9
2022-12-12T17:09:02.953Z,81
2022-12-12T17:12:02.961Z,81
2022-12-12T17:15:02.924Z,81
2022-12-12T17:18:02.905Z,81
2022-12-12T17:21:02.980Z,81
2022-12-12T17:24:02.930Z,81
2022-12-12T17:27:02.978Z,81
2022-12-12T17:30:02.932Z,81
2022-12-12T17:33:34.413Z,80.6
2022-12-12T17:36:02.942Z,80.6
2022-12-12T17:39:02.931Z,80.6
2022-12-12T17:42:02.908Z,80.6
2022-12-12T17:45:02.954Z,80.6
2022-12-12T17:48:02.989Z,80.6
2022-12-12T17:51:02.990Z,80.6
2022-12-12T17:54:02.992Z,80.6
2022-12-12T17:57:02.904Z,80.5
2022-12-12T18:00:03.060Z,80.5
2022-12-12T18:03:02.940Z,80.5
2022-12-12T18:06:02.956Z,80.5
2022-12-12T18:09:03.125Z,80.5
2022-12-12T18:12:02.975Z,80.5
2022-12-12T18:15:02.971Z,80.5
2022-12-12T18:18:02.930Z,80.5
2022-12-12T18:21:02.957Z,80.5
2022-12-12T18:24:03.057Z,80.5
2022-12-12T18:27:02.978Z,80.5
2022-12-12T18:30:03.085Z,80.5
2022-12-12T18:33:05.637Z,80.4
2022-12-12T18:36:02.976Z,80.4
2022-12-12T18:39:02.930Z,80.4
2022-12-12T18:42:02.989Z,80.4
2022-12-12T18:45:02.989Z,80.4
2022-12-12T18:48:03.009Z,80.4
2022-12-12T18:51:02.954Z,80.4
2022-12-12T18:54:03.006Z,80.4
2022-12-12T18:57:02.962Z,80.4
2022-12-12T19:00:03.042Z,80.8
2022-12-12T19:03:02.948Z,80.8
2022-12-12T19:06:02.993Z,80.8
2022-12-12T19:09:02.987Z,80.8
2022-12-12T19:12:05.210Z,81.5
2022-12-12T19:15:20.017Z,81.5
2022-12-12T19:18:02.954Z,81.5
2022-12-12T19:21:02.960Z,81.5
2022-12-12T19:24:03.003Z,81.5
2022-12-12T19:27:02.958Z,81.5
2022-12-12T19:30:02.945Z,81.5
2022-12-12T19:33:02.926Z,81.5
2022-12-12T19:36:02.984Z,81.5
2022-12-12T19:39:02.982Z,81.5
2022-12-12T19:42:02.972Z,81.5
2022-12-12T19:45:02.880Z,81.5
2022-12-12T19:48:02.948Z,81.5
2022-12-12T19:51:02.924Z,81.5
2022-12-12T19:54:02.931Z,82.8
2022-12-12T19:57:02.934Z,82.8
2022-12-12T20:00:02.963Z,82.6
2022-12-12T20:03:03.053Z,82.6
2022-12-12T20:06:02.959Z,82.6
2022-12-12T20:09:02.919Z,82.6
2022-12-12T20:12:02.957Z,82.6
2022-12-12T20:15:02.959Z,82.6
2022-12-12T20:18:02.962Z,82.6
2022-12-12T20:21:02.842Z,82.6
2022-12-12T20:24:02.965Z,82.6
2022-12-12T20:27:02.898Z,82.6
2022-12-12T20:30:03.012Z,82.6
2022-12-12T20:33:02.976Z,82.6
2022-12-12T20:36:02.941Z,83.5
2022-12-12T20:39:02.857Z,83.5
2022-12-12T20:42:02.978Z,83.5
2022-12-12T20:45:02.971Z,83.5
2022-12-12T20:48:10.074Z,83.3
2022-12-12T20:51:02.875Z,83.3
2022-12-12T20:54:02.951Z,83.3
2022-12-12T20:57:02.930Z,83.3
2022-12-12T21:00:03.030Z,83.3
2022-12-12T21:03:03.060Z,83.3
2022-12-12T21:06:02.941Z,83.3
2022-12-12T21:09:03.351Z,83.3
2022-12-12T21:12:02.941Z,83.3
2022-12-12T21:15:05.586Z,83.3
2022-12-12T21:18:02.953Z,83.3
2022-12-12T21:21:02.922Z,83.3
2022-12-12T21:24:02.899Z,83.3
2022-12-12T21:27:02.935Z,83.3
2022-12-12T21:30:02.993Z,82.8
2022-12-12T21:33:02.959Z,82.8
2022-12-12T21:36:02.951Z,82.8
2022-12-12T21:39:02.941Z,82.8
2022-12-12T21:42:02.942Z,82.8
2022-12-12T21:45:03.399Z,82.8
2022-12-12T21:48:02.908Z,82.8
2022-12-12T21:51:02.979Z,82.8
2022-12-12T21:54:02.966Z,82.8
2022-12-12T21:57:02.986Z,82.8
2022-12-12T22:00:03.050Z,82.8
2022-12-12T22:03:03.116Z,82.8
2022-12-12T22:06:03.069Z,82.8
2022-12-12T22:09:02.971Z,82.8
2022-12-12T22:12:06.890Z,82.8
2022-12-12T22:15:02.988Z,82.8
2022-12-12T22:18:02.959Z,82.8
2022-12-12T22:21:02.968Z,84.4
2022-12-12T22:24:02.900Z,84.4
2022-12-12T22:27:02.974Z,84.4
2022-12-12T22:30:02.977Z,84.4
2022-12-12T22:33:02.990Z,84.4
2022-12-12T22:36:03.011Z,84.4
2022-12-12T22:39:03.020Z,84.4
2022-12-12T22:42:02.967Z,84.4
2022-12-12T22:45:03.025Z,84.4
2022-12-12T22:48:02.948Z,84.4
2022-12-12T22:51:02.981Z,84.4
2022-12-12T22:54:02.957Z,84.4
2022-12-12T22:57:02.947Z,84.4
2022-12-12T23:00:03.339Z,82.8
2022-12-12T23:03:02.980Z,82.8
2022-12-12T23:06:03.134Z,82.8
2022-12-12T23:09:03.054Z,82.8
2022-12-12T23:12:02.934Z,82.8
2022-12-12T23:15:02.987Z,82.5
2022-12-12T23:18:02.996Z,82.5
2022-12-12T23:21:02.984Z,82.5
2022-12-12T23:24:02.977Z,82.5
2022-12-12T23:27:03.019Z,82.5
2022-12-12T23:30:03.010Z,82.5
2022-12-12T23:33:03.012Z,82.5
2022-12-12T23:36:02.943Z,82.5
2022-12-12T23:39:03.001Z,82.5
2022-12-12T23:42:02.952Z,82.5
2022-12-12T23:45:03.032Z,82.5
2022-12-12T23:48:02.945Z,82.5
2022-12-12T23:51:03.071Z,81.7
2022-12-12T23:54:02.985Z,81.7
2022-12-12T23:57:03.001Z,81.7
